Time;durP1;ratioP1;P1;durP2;ratioP2;P2;SDS_P1;SDS_P2;PMS_P1;PMS_P2;Temp;Humidity;BMP_temperature;BMP_pressure;BME280_temperature;BME280_humidity;BME280_pressure;Samples;Min_cycle;Max_cycle;Signal;HPM_P1;HPM_P2
2022/04/19 00:00:23;;;;;;;4.30;3.50;;;;;;;5.64;69.63;99170.06;5098173;28;20084;-76
2022/04/19 00:02:49;;;;;;;3.70;3.35;;;;;;;5.45;70.20;99171.00;5097491;28;20059;-75
2022/04/19 00:05:14;;;;;;;3.63;3.22;;;;;;;5.57;70.96;99162.16;5098268;28;20023;-75
2022/04/19 00:07:41;;;;;;;3.45;2.85;;;;;;;5.51;70.79;99168.94;5098745;28;20016;-75
2022/04/19 00:10:07;;;;;;;3.38;2.13;;;;;;;5.52;71.39;99169.75;5117216;28;20024;-75
2022/04/19 00:12:33;;;;;;;3.72;2.13;;;;;;;5.39;71.78;99163.91;5097835;28;20122;-76
2022/04/19 00:14:59;;;;;;;2.90;2.30;;;;;;;5.26;71.15;99164.72;5097954;28;20058;-75
2022/04/19 00:17:25;;;;;;;3.70;2.38;;;;;;;4.96;71.34;99178.03;5112308;28;20070;-75
2022/04/19 00:19:50;;;;;;;2.22;2.03;;;;;;;5.09;71.73;99166.13;5112033;28;20077;-74
2022/04/19 00:22:17;;;;;;;2.97;2.30;;;;;;;4.97;72.00;99157.50;5113403;28;20023;-75
2022/04/19 00:24:43;;;;;;;3.50;2.67;;;;;;;4.86;72.52;99160.44;5094972;28;20028;-75
2022/04/19 00:27:08;;;;;;;12.93;3.05;;;;;;;4.75;71.93;99157.00;5095939;28;20390;-75
2022/04/19 00:29:34;;;;;;;2.60;2.30;;;;;;;4.86;72.24;99159.63;5114154;28;20019;-77
2022/04/19 00:31:59;;;;;;;2.65;2.28;;;;;;;4.61;75.02;99162.53;5113090;28;20028;-75
2022/04/19 00:34:25;;;;;;;3.40;2.90;;;;;;;4.77;74.29;99160.34;5114052;28;20023;-76
2022/04/19 00:36:50;;;;;;;6.07;4.20;;;;;;;4.55;76.56;99152.66;5113744;28;20027;-76
2022/04/19 00:39:16;;;;;;;10.40;7.10;;;;;;;4.71;77.12;99156.00;5113856;28;20028;-75
2022/04/19 00:41:41;;;;;;;12.90;7.93;;;;;;;4.68;78.02;99147.47;5094684;28;20042;-74
2022/04/19 00:44:07;;;;;;;13.85;8.57;;;;;;;4.74;77.40;99154.56;5113407;28;20028;-75
2022/04/19 00:46:33;;;;;;;8.40;6.00;;;;;;;4.55;77.50;99155.41;5094514;28;20035;-75
2022/04/19 00:48:59;;;;;;;7.80;5.70;;;;;;;4.23;78.83;99148.75;5095607;28;20035;-75
2022/04/19 00:51:26;;;;;;;6.38;4.70;;;;;;;4.29;78.70;99150.28;5108742;28;20052;-75
2022/04/19 00:53:52;;;;;;;5.07;4.40;;;;;;;4.06;79.08;99154.81;5113189;28;20031;-75
2022/04/19 00:56:18;;;;;;;7.70;4.60;;;;;;;4.02;79.38;99146.28;5095546;28;20100;-75
2022/04/19 00:58:43;;;;;;;5.45;4.75;;;;;;;4.22;79.53;99145.13;5113403;28;20039;-74
2022/04/19 01:01:09;;;;;;;6.85;4.57;;;;;;;4.26;78.48;99153.69;5094267;28;20130;-75
2022/04/19 01:03:37;;;;;;;9.88;6.88;;;;;;;3.76;80.06;99146.63;5112333;28;20023;-76
2022/04/19 01:06:04;;;;;;;15.52;10.73;;;;;;;3.59;80.32;99149.06;5096086;28;20114;-76
2022/04/19 01:08:30;;;;;;;19.65;11.85;;;;;;;3.84;80.02;99149.84;5114206;28;20024;-76
2022/04/19 01:13:42;;;;;;;18.05;12.55;;;;;;;3.54;80.46;99149.16;5058930;28;20040;-74
2022/04/19 01:16:08;;;;;;;19.23;12.95;;;;;;;3.80;80.62;99149.63;5105291;28;20106;-76
2022/04/19 01:18:35;;;;;;;16.98;10.90;;;;;;;4.01;79.40;99147.41;5114313;28;20027;-75
2022/04/19 01:21:01;;;;;;;15.25;9.82;;;;;;;3.81;79.60;99134.69;5112711;28;20023;-76
2022/04/19 01:23:29;;;;;;;16.65;10.80;;;;;;;3.95;79.98;99150.53;5113407;28;20100;-75
2022/04/19 01:25:55;;;;;;;15.82;10.43;;;;;;;4.00;79.32;99125.53;5113649;28;20028;-75
2022/04/19 01:28:21;;;;;;;15.50;9.82;;;;;;;4.17;79.01;99136.94;5105662;28;20032;-76
2022/04/19 01:30:54;;;;;;;11.93;8.23;;;;;;;4.06;80.02;99135.44;5095407;28;20022;-75
2022/04/19 01:33:21;;;;;;;12.80;8.65;;;;;;;4.16;79.63;99138.06;5112466;28;20047;-75
2022/04/19 01:35:48;;;;;;;12.15;7.78;;;;;;;4.07;79.81;99134.31;5094985;28;20024;-75
2022/04/19 01:38:14;;;;;;;10.85;7.78;;;;;;;4.00;79.88;99136.63;5094056;28;20019;-75
2022/04/19 01:40:40;;;;;;;10.02;6.88;;;;;;;4.13;80.21;99129.53;5094927;28;20031;-76
2022/04/19 01:43:06;;;;;;;10.65;7.03;;;;;;;4.25;79.45;99131.81;5113273;28;20026;-75
2022/04/19 01:45:33;;;;;;;10.63;7.38;;;;;;;4.30;79.01;99135.31;5113064;28;20015;-75
2022/04/19 01:48:00;;;;;;;8.68;6.15;;;;;;;4.35;79.04;99137.19;5112230;28;20140;-75
2022/04/19 01:50:27;;;;;;;11.25;6.60;;;;;;;4.34;79.24;99130.00;5093921;28;20030;-75
2022/04/19 01:52:55;;;;;;;10.07;6.13;;;;;;;4.43;78.95;99121.84;5112930;28;20015;-75
2022/04/19 01:55:21;;;;;;;12.23;6.72;;;;;;;4.57;78.44;99127.44;5094508;28;20114;-75
2022/04/19 01:57:49;;;;;;;9.95;5.97;;;;;;;4.58;79.15;99129.06;5112644;28;20047;-75
2022/04/19 02:00:16;;;;;;;8.95;6.47;;;;;;;4.66;79.05;99128.38;5101048;28;20444;-76
2022/04/19 02:02:43;;;;;;;11.05;7.25;;;;;;;4.67;79.06;99127.25;5111317;28;20474;-75
2022/04/19 02:05:09;;;;;;;10.55;6.78;;;;;;;4.75;77.91;99122.97;5112137;28;20110;-75
2022/04/19 02:07:39;;;;;;;11.60;6.57;;;;;;;4.86;78.67;99110.56;5092838;28;20115;-74
2022/04/19 02:10:06;;;;;;;14.88;8.68;;;;;;;4.89;78.75;99107.16;5112398;28;20023;-75
2022/04/19 02:12:31;;;;;;;16.13;10.68;;;;;;;4.70;78.84;99117.50;5093561;28;20032;-75
2022/04/19 02:14:57;;;;;;;18.20;10.27;;;;;;;4.82;78.27;99122.56;5092864;28;20028;-74
2022/04/19 02:17:23;;;;;;;16.98;9.73;;;;;;;4.82;78.48;99122.56;5093985;28;20035;-75
2022/04/19 02:20:09;;;;;;;15.00;8.13;;;;;;;4.68;77.48;99122.53;5112045;28;20030;-74
2022/04/19 02:22:36;;;;;;;11.85;4.88;;;;;;;4.75;77.52;99125.72;5092268;28;20085;-75
2022/04/19 02:25:04;;;;;;;5.55;4.68;;;;;;;4.66;77.83;99122.00;5093705;28;20069;-75
2022/04/19 02:27:31;;;;;;;9.27;7.97;;;;;;;4.86;78.32;99118.88;5093755;28;20032;-74
2022/04/19 02:29:57;;;;;;;10.25;7.60;;;;;;;4.95;78.06;99109.84;5110845;28;20023;-72
2022/04/19 02:32:23;;;;;;;7.55;5.97;;;;;;;4.93;78.14;99112.94;5108482;28;20026;-74
2022/04/19 02:34:53;;;;;;;7.78;4.72;;;;;;;4.99;78.36;99116.44;5093590;28;20024;-74
2022/04/19 02:37:19;;;;;;;5.53;4.65;;;;;;;4.99;78.38;99110.88;5108691;28;20035;-75
2022/04/19 02:39:48;;;;;;;7.13;5.55;;;;;;;5.06;77.65;99106.56;5093674;28;20024;-74
2022/04/19 02:42:14;;;;;;;4.75;4.20;;;;;;;4.88;77.02;99113.84;5092130;28;20125;-75
2022/04/19 02:44:39;;;;;;;7.13;4.15;;;;;;;4.72;77.91;99129.13;5083242;28;20032;-75
2022/04/19 02:47:05;;;;;;;8.20;4.80;;;;;;;4.89;78.16;99128.53;5091930;28;20016;-74
2022/04/19 02:49:32;;;;;;;5.72;4.00;;;;;;;4.96;78.20;99117.06;5091610;28;20043;-75
2022/04/19 02:51:58;;;;;;;7.85;4.45;;;;;;;4.99;78.74;99108.91;5086531;28;20031;-75
2022/04/19 02:54:23;;;;;;;5.60;4.32;;;;;;;5.11;77.71;99113.97;5110921;28;20027;-75
2022/04/19 02:56:49;;;;;;;8.30;4.32;;;;;;;5.07;77.92;99118.50;5093110;28;20027;-75
2022/04/19 02:59:14;;;;;;;6.20;4.60;;;;;;;4.67;77.18;99126.41;5090118;28;20142;-75
2022/04/19 03:01:40;;;;;;;6.65;4.90;;;;;;;4.25;80.04;99127.13;5091296;28;20386;-75
2022/04/19 03:04:05;;;;;;;5.32;3.72;;;;;;;4.55;79.24;99116.63;5091474;28;20028;-75
2022/04/19 03:06:31;;;;;;;4.35;3.83;;;;;;;4.77;78.16;99118.75;5091639;28;20032;-75
2022/04/19 03:08:57;;;;;;;4.38;3.92;;;;;;;4.87;79.18;99120.50;5091576;28;20035;-75
2022/04/19 03:11:22;;;;;;;7.70;4.50;;;;;;;4.99;78.94;99127.50;5089074;28;20121;-75
2022/04/19 03:13:48;;;;;;;4.25;3.85;;;;;;;5.08;78.42;99122.91;5086852;28;20032;-75
2022/04/19 03:16:13;;;;;;;6.57;3.95;;;;;;;5.00;78.82;99126.38;5091567;28;20060;-74
2022/04/19 03:18:43;;;;;;;4.70;3.85;;;;;;;4.92;78.03;99134.28;5091748;28;20066;-75
2022/04/19 03:21:10;;;;;;;6.43;3.95;;;;;;;4.76;78.48;99136.50;5091404;28;20133;-75
2022/04/19 03:29:10;;;;;;;6.25;4.18;;;;;;;4.96;78.53;99128.13;5056930;28;20055;-74
2022/04/19 03:31:36;;;;;;;4.55;3.55;;;;;;;4.90;78.26;99132.94;5093162;28;20031;-75
2022/04/19 03:34:03;;;;;;;4.93;3.72;;;;;;;4.91;78.76;99131.81;5094477;28;20115;-75
2022/04/19 03:36:29;;;;;;;5.40;4.90;;;;;;;5.00;78.68;99118.88;5095091;28;20034;-75
2022/04/19 03:38:55;;;;;;;6.90;5.30;;;;;;;5.15;78.60;99123.31;5093455;28;20103;-75
2022/04/19 03:41:21;;;;;;;8.25;4.65;;;;;;;5.17;78.51;99117.47;5092249;28;20045;-74
2022/04/19 03:43:46;;;;;;;4.68;3.45;;;;;;;5.11;78.42;99119.53;5092570;28;20051;-75
2022/04/19 03:46:12;;;;;;;8.57;3.90;;;;;;;5.22;78.26;99122.91;5090137;28;20173;-74
2022/04/19 03:48:38;;;;;;;4.32;3.50;;;;;;;5.22;78.46;99119.31;5086973;28;20397;-74
2022/04/19 03:51:04;;;;;;;8.10;3.88;;;;;;;5.26;77.85;99125.88;5077436;28;20032;-74
2022/04/19 03:53:32;;;;;;;5.43;3.88;;;;;;;5.26;78.70;99137.81;5093957;28;20031;-74
2022/04/19 03:56:03;;;;;;;4.25;3.70;;;;;;;5.19;79.09;99141.00;5094424;28;20024;-74
2022/04/19 03:58:32;;;;;;;4.20;3.80;;;;;;;5.08;78.43;99150.63;5092224;28;20086;-75
2022/04/19 04:00:58;;;;;;;7.00;3.58;;;;;;;5.09;78.80;99148.66;5091884;28;20040;-75
2022/04/19 04:03:23;;;;;;;4.18;3.40;;;;;;;4.86;78.70;99141.06;5094744;28;20028;-75
2022/04/19 04:05:49;;;;;;;5.20;3.72;;;;;;;4.90;79.47;99147.63;5092710;28;20043;-75
2022/04/19 04:08:15;;;;;;;6.78;4.53;;;;;;;4.86;79.31;99157.69;5094114;28;20032;-75
2022/04/19 04:10:40;;;;;;;8.63;5.15;;;;;;;4.81;79.76;99143.88;5092608;28;20119;-74
2022/04/19 04:13:06;;;;;;;8.45;5.82;;;;;;;4.87;79.66;99152.94;5094076;28;20020;-75
2022/04/19 04:15:31;;;;;;;20.05;12.02;;;;;;;4.45;80.34;99166.66;5093413;28;20462;-74
2022/04/19 04:17:57;;;;;;;11.55;7.95;;;;;;;4.18;81.70;99166.25;5093433;28;20106;-75
2022/04/19 04:20:22;;;;;;;14.48;9.45;;;;;;;4.18;83.18;99159.88;5093633;28;20462;-74
2022/04/19 04:22:48;;;;;;;24.77;15.07;;;;;;;4.15;83.66;99171.56;5093891;28;20115;-75
2022/04/19 04:25:13;;;;;;;26.80;16.40;;;;;;;4.24;83.76;99177.25;5087412;28;20113;-75
2022/04/19 04:27:39;;;;;;;18.63;12.20;;;;;;;4.29;84.15;99178.00;5092246;28;20512;-74
2022/04/19 04:30:06;;;;;;;23.60;14.00;;;;;;;4.37;83.64;99173.72;5092245;28;20104;-75
2022/04/19 04:32:32;;;;;;;19.48;12.15;;;;;;;4.43;83.35;99177.22;5092920;28;20035;-75
2022/04/19 04:34:58;;;;;;;20.50;12.25;;;;;;;4.47;82.54;99178.28;5093485;28;20030;-74
2022/04/19 04:37:24;;;;;;;16.98;10.52;;;;;;;4.45;81.67;99184.13;5093171;28;20028;-74
2022/04/19 04:39:49;;;;;;;18.55;12.63;;;;;;;4.34;82.14;99169.63;5092750;28;20382;-74
2022/04/19 04:42:15;;;;;;;24.67;14.85;;;;;;;4.55;81.88;99174.00;5093242;28;20028;-74
2022/04/19 04:44:40;;;;;;;37.58;18.95;;;;;;;4.47;82.64;99187.41;5091631;28;20031;-72
2022/04/19 04:49:51;;;;;;;17.55;12.23;;;;;;;4.55;82.77;99176.78;5089733;28;20437;-77
2022/04/19 04:52:16;;;;;;;19.80;12.10;;;;;;;4.51;82.14;99193.16;5091673;28;20441;-81
2022/04/19 04:54:43;;;;;;;21.27;11.77;;;;;;;4.42;82.63;99183.88;5092022;28;20038;-78
2022/04/19 04:57:08;;;;;;;22.13;13.05;;;;;;;4.46;82.30;99190.47;5094248;28;20020;-72
2022/04/19 04:59:35;;;;;;;21.58;14.20;;;;;;;4.63;83.08;99181.59;5094973;28;20049;-75
2022/04/19 05:02:01;;;;;;;36.45;14.85;;;;;;;4.74;82.79;99185.06;5101232;28;20051;-78
2022/04/19 05:04:27;;;;;;;85.47;10.82;;;;;;;4.24;83.30;99194.69;5095335;28;20415;-77
2022/04/19 05:06:56;;;;;;;27.52;8.43;;;;;;;4.31;82.37;99178.50;5093774;28;20027;-78
2022/04/19 05:09:21;;;;;;;17.13;9.70;;;;;;;4.64;82.38;99186.03;5094053;28;20050;-74
2022/04/19 05:11:52;;;;;;;15.75;9.82;;;;;;;4.88;81.76;99188.69;5091216;28;20110;-73
2022/04/19 05:14:18;;;;;;;17.65;8.80;;;;;;;4.86;82.00;99188.16;5078442;28;20477;-79
2022/04/19 05:16:43;;;;;;;13.98;9.57;;;;;;;4.72;81.51;99190.06;5091841;28;20035;-72
2022/04/19 05:19:09;;;;;;;17.77;8.93;;;;;;;4.86;80.88;99195.63;5112766;28;20438;-77
2022/04/19 05:21:38;;;;;;;14.40;9.15;;;;;;;5.03;80.06;99189.53;5111894;28;20110;-74
2022/04/19 05:24:05;;;;;;;16.52;8.27;;;;;;;5.17;79.80;99189.56;5112292;28;20028;-71
2022/04/19 05:26:30;;;;;;;16.20;8.68;;;;;;;5.14;79.23;99187.41;5093734;28;20541;-74
2022/04/19 05:28:56;;;;;;;15.73;8.10;;;;;;;5.01;78.73;99184.31;5093036;28;20055;-77
2022/04/19 05:31:47;;;;;;;16.45;8.77;;;;;;;5.05;77.53;99198.34;5099414;28;20034;-76
2022/04/19 05:34:12;;;;;;;20.25;11.85;;;;;;;4.81;78.93;99199.31;5089363;28;20028;-76
2022/04/19 05:36:39;;;;;;;24.70;11.27;;;;;;;4.99;79.11;99194.03;5092344;28;20043;-68
2022/04/19 05:39:04;;;;;;;20.85;11.38;;;;;;;5.14;77.03;99196.53;5093802;28;20024;-72
2022/04/19 05:41:30;;;;;;;25.85;13.40;;;;;;;5.31;76.45;99200.69;5093024;28;20025;-71
2022/04/19 05:43:55;;;;;;;24.20;10.85;;;;;;;5.21;75.73;99201.69;5111450;28;20496;-69
2022/04/19 05:46:20;;;;;;;24.13;15.63;;;;;;;4.96;76.69;99200.22;5093165;28;20058;-78
2022/04/19 05:48:47;;;;;;;16.90;10.95;;;;;;;4.71;77.36;99213.38;5109276;28;20380;-74
2022/04/19 05:51:13;;;;;;;11.80;7.63;;;;;;;4.21;77.46;99215.47;5074009;28;20040;-70
2022/04/19 05:53:41;;;;;;;11.07;7.78;;;;;;;4.58;76.97;99212.97;5101029;28;20035;-70
2022/04/19 05:56:07;;;;;;;17.52;9.00;;;;;;;4.70;77.65;99215.31;5086118;28;20032;-70
2022/04/19 05:58:33;;;;;;;10.10;5.68;;;;;;;4.07;76.15;99215.38;5090399;28;20096;-68
2022/04/19 06:00:59;;;;;;;22.23;13.07;;;;;;;4.27;77.12;99216.22;5110086;28;20088;-71
2022/04/19 06:06:08;;;;;;;7.10;5.40;;;;;;;4.18;74.81;99223.56;5100984;28;20161;-71
2022/04/19 06:08:33;;;;;;;11.65;9.65;;;;;;;4.67;75.69;99220.63;5101411;28;20035;-72
2022/04/19 06:10:59;;;;;;;21.10;15.57;;;;;;;5.03;75.04;99218.09;5103533;28;20044;-71
2022/04/19 06:13:25;;;;;;;7.40;5.43;;;;;;;5.28;73.81;99227.06;5088742;28;20031;-74
2022/04/19 06:15:50;;;;;;;11.73;6.78;;;;;;;5.15;74.32;99225.91;5076348;28;20096;-73
2022/04/19 06:18:16;;;;;;;17.58;13.75;;;;;;;5.47;74.17;99226.16;5107596;28;20732;-70
2022/04/19 06:20:41;;;;;;;10.95;7.40;;;;;;;5.57;72.55;99225.97;5109110;28;20019;-79
2022/04/19 06:23:07;;;;;;;10.43;6.43;;;;;;;5.17;73.00;99223.63;5107337;28;20104;-72
2022/04/19 06:25:32;;;;;;;9.02;6.28;;;;;;;5.48;73.02;99230.56;5107518;28;20089;-76
2022/04/19 06:27:57;;;;;;;7.85;6.22;;;;;;;5.41;70.53;99224.63;5107335;28;21985;-77
2022/04/19 06:30:24;;;;;;;14.63;6.63;;;;;;;5.62;71.21;99233.38;5110009;28;20023;-75
2022/04/19 06:32:51;;;;;;;7.78;5.78;;;;;;;5.86;70.82;99230.41;5088662;28;20023;-70
2022/04/19 06:35:16;;;;;;;8.93;6.13;;;;;;;5.80;69.29;99236.38;5108742;28;20547;-72
2022/04/19 06:37:42;;;;;;;11.15;9.57;;;;;;;5.69;69.56;99227.41;5087357;28;20027;-69
2022/04/19 06:40:09;;;;;;;5.35;4.63;;;;;;;5.68;69.53;99236.84;5079917;28;20028;-77
2022/04/19 06:42:35;;;;;;;6.65;4.35;;;;;;;5.32;69.85;99246.69;5073422;28;20032;-71
2022/04/19 06:45:01;;;;;;;8.23;4.25;;;;;;;5.31;70.39;99240.31;5087917;28;20085;-73
2022/04/19 06:47:27;;;;;;;10.23;6.07;;;;;;;5.90;71.27;99238.91;5110411;28;20035;-73
2022/04/19 06:49:58;;;;;;;8.32;5.28;;;;;;;6.11;70.51;99228.25;5111039;28;20031;-74
2022/04/19 06:52:24;;;;;;;5.72;4.78;;;;;;;6.47;66.07;99232.16;5107263;28;20027;-70
2022/04/19 06:54:50;;;;;;;7.63;5.32;;;;;;;7.01;67.57;99237.81;5107862;28;20107;-70
2022/04/19 06:57:16;;;;;;;4.50;3.90;;;;;;;6.65;65.29;99238.69;5109721;28;20145;-70
2022/04/19 06:59:41;;;;;;;6.50;3.90;;;;;;;6.81;66.64;99249.44;5110160;28;20570;-70
2022/04/19 07:02:07;;;;;;;6.60;4.30;;;;;;;6.82;65.65;99240.78;5095295;28;20031;-70
2022/04/19 07:04:33;;;;;;;9.60;4.18;;;;;;;6.52;64.97;99242.34;5115341;28;20032;-70
2022/04/19 07:06:58;;;;;;;11.85;5.45;;;;;;;6.79;65.84;99241.41;5095173;28;20042;-70
2022/04/19 07:09:24;;;;;;;7.00;4.47;;;;;;;7.00;64.62;99244.50;5115115;28;20023;-70
2022/04/19 07:11:49;;;;;;;5.90;3.90;;;;;;;6.59;64.30;99237.97;5114814;28;20478;-74
2022/04/19 07:14:15;;;;;;;6.70;4.13;;;;;;;6.91;65.57;99242.81;5095877;28;20031;-75
2022/04/19 07:16:40;;;;;;;5.47;3.60;;;;;;;7.12;62.18;99238.38;5115456;28;20076;-73
2022/04/19 07:19:06;;;;;;;6.53;3.90;;;;;;;7.25;61.82;99242.22;5093179;28;20028;-75
2022/04/19 07:27:03;;;;;;;11.23;4.75;;;;;;;8.13;58.84;99236.97;5114788;28;20046;-75
2022/04/19 07:29:29;;;;;;;4.40;3.40;;;;;;;8.31;59.23;99233.41;5108784;28;20504;-69
2022/04/19 07:31:56;;;;;;;6.57;3.60;;;;;;;8.71;59.44;99238.91;5114727;28;20139;-71
2022/04/19 07:34:22;;;;;;;7.78;3.47;;;;;;;7.59;58.90;99249.09;5095251;28;20039;-72
2022/04/19 07:36:48;;;;;;;7.15;4.50;;;;;;;8.17;59.74;99239.94;5115086;28;20039;-70
2022/04/19 07:39:13;;;;;;;7.13;4.07;;;;;;;8.32;57.62;99237.84;5107886;28;20020;-72
2022/04/19 07:41:40;;;;;;;4.50;3.97;;;;;;;7.18;61.07;99244.63;5103478;28;20351;-69
2022/04/19 07:44:06;;;;;;;8.68;4.90;;;;;;;6.81;63.01;99235.53;5113593;28;20051;-72
2022/04/19 07:46:33;;;;;;;7.68;5.30;;;;;;;6.54;64.83;99249.22;5104226;28;20024;-73
2022/04/19 07:48:59;;;;;;;5.75;4.90;;;;;;;6.30;64.91;99241.16;5114950;28;20027;-72
2022/04/19 07:51:25;;;;;;;8.48;5.70;;;;;;;6.32;66.07;99239.72;5114696;28;20016;-72
2022/04/19 07:53:51;;;;;;;13.52;9.43;;;;;;;6.74;65.67;99247.09;5112172;28;20547;-72
2022/04/19 07:56:17;;;;;;;11.38;6.82;;;;;;;6.38;66.03;99237.66;5107961;28;20050;-72
2022/04/19 07:58:45;;;;;;;8.07;6.07;;;;;;;6.17;68.75;99237.28;5090241;28;20046;-73
2022/04/19 08:01:10;;;;;;;6.95;5.57;;;;;;;6.45;67.65;99242.75;5098973;28;20023;-73
2022/04/19 08:03:37;;;;;;;6.90;5.65;;;;;;;6.09;66.79;99246.34;5095354;28;20076;-74
2022/04/19 08:06:03;;;;;;;8.10;6.07;;;;;;;5.70;68.69;99246.53;5110837;28;20103;-72
2022/04/19 08:08:28;;;;;;;10.15;5.95;;;;;;;6.31;70.69;99237.22;5111007;28;20153;-73
2022/04/19 08:10:53;;;;;;;14.10;6.97;;;;;;;6.78;69.97;99239.78;5102357;28;20080;-73
2022/04/19 08:13:19;;;;;;;7.72;6.47;;;;;;;6.73;68.16;99237.94;5109086;28;20032;-73
2022/04/19 08:15:45;;;;;;;7.38;5.88;;;;;;;7.11;66.99;99245.06;5112622;28;20442;-73
2022/04/19 08:18:13;;;;;;;7.57;5.53;;;;;;;7.12;67.02;99249.50;5112329;28;20027;-73
2022/04/19 08:20:42;;;;;;;8.57;6.13;;;;;;;6.99;68.11;99248.44;5107389;28;20034;-73
2022/04/19 08:23:08;;;;;;;7.13;5.70;;;;;;;6.73;66.25;99249.06;5096720;27;20034;-73
2022/04/19 08:25:35;;;;;;;11.15;5.53;;;;;;;7.15;67.84;99245.25;5107851;28;20462;-73
2022/04/19 08:28:00;;;;;;;15.80;10.32;;;;;;;7.55;67.73;99241.72;5102303;28;20055;-73
2022/04/19 08:30:26;;;;;;;8.02;5.93;;;;;;;7.56;62.50;99240.56;5112220;28;20062;-76
2022/04/19 08:32:51;;;;;;;9.52;5.55;;;;;;;7.58;64.16;99244.69;5110759;28;20016;-72
2022/04/19 08:35:18;;;;;;;7.60;5.78;;;;;;;8.08;63.91;99234.38;5106078;28;20069;-72
2022/04/19 08:37:43;;;;;;;5.88;5.25;;;;;;;7.60;61.56;99241.56;5090156;28;20028;-76
2022/04/19 08:40:11;;;;;;;6.80;5.85;;;;;;;8.19;64.72;99243.22;5107190;28;20075;-73
2022/04/19 08:42:38;;;;;;;5.50;4.97;;;;;;;8.48;62.25;99235.41;5111188;28;20500;-72
2022/04/19 08:45:05;;;;;;;6.93;5.13;;;;;;;9.00;63.35;99234.59;5113438;28;20034;-72
2022/04/19 08:47:32;;;;;;;7.88;4.57;;;;;;;8.83;57.18;99232.66;5095286;28;20023;-72
2022/04/19 08:50:01;;;;;;;7.03;4.70;;;;;;;9.05;58.61;99231.66;5113337;28;20367;-72
2022/04/19 08:52:26;;;;;;;10.27;4.70;;;;;;;9.06;56.81;99227.72;5113130;28;20051;-72
2022/04/19 08:57:39;;;;;;;8.25;4.90;;;;;;;8.58;59.63;99226.75;5113541;28;20104;-73
2022/04/19 09:00:06;;;;;;;9.57;6.50;;;;;;;8.54;59.86;99229.38;5112959;28;20016;-73
2022/04/19 09:02:33;;;;;;;9.90;7.13;;;;;;;8.71;58.68;99231.34;5112813;28;20081;-73
2022/04/19 09:05:16;;;;;;;7.05;5.55;;;;;;;8.99;57.91;99216.22;5113365;28;20024;-73
2022/04/19 09:07:43;;;;;;;10.15;4.43;;;;;;;9.03;57.08;99228.34;5112081;28;20110;-73
2022/04/19 09:10:14;;;;;;;5.97;4.63;;;;;;;9.11;57.16;99215.53;5113432;28;20026;-73
2022/04/19 09:13:03;;;;;;;12.40;5.45;;;;;;;9.31;57.15;99219.63;5113038;28;20076;-73
2022/04/19 09:15:32;;;;;;;7.95;5.65;;;;;;;9.30;54.26;99214.34;5109734;28;20035;-73
2022/04/19 09:17:59;;;;;;;4.43;4.00;;;;;;;9.48;56.53;99206.75;5099937;28;20503;-73
2022/04/19 09:20:24;;;;;;;20.42;10.13;;;;;;;9.18;55.02;99213.06;5103867;28;20378;-72
2022/04/19 09:23:03;;;;;;;6.53;4.10;;;;;;;8.30;57.78;99210.31;5105871;28;20024;-73
2022/04/19 09:25:29;;;;;;;4.45;3.50;;;;;;;8.63;56.67;99217.41;5106358;28;20046;-72
2022/04/19 09:27:57;;;;;;;60.47;23.10;;;;;;;9.15;57.95;99219.31;5111366;28;20549;-72
2022/04/19 09:30:32;;;;;;;11.35;5.95;;;;;;;9.73;54.19;99202.22;5092201;28;20054;-72
2022/04/19 09:33:16;;;;;;;6.88;4.00;;;;;;;10.13;54.86;99200.97;5098380;28;20091;-72
2022/04/19 09:35:50;;;;;;;9.32;5.22;;;;;;;10.76;53.63;99191.84;5102477;28;20020;-81
2022/04/19 09:38:16;;;;;;;462.05;239.07;;;;;;;10.73;50.20;99189.69;5094098;28;20023;-73
2022/04/19 09:40:45;;;;;;;25.52;15.30;;;;;;;10.35;51.29;99196.25;5094119;28;20455;-72
2022/04/19 09:43:20;;;;;;;26.77;21.52;;;;;;;10.51;51.80;99196.47;5092729;28;20032;-69
2022/04/19 09:45:51;;;;;;;76.30;58.15;;;;;;;10.51;51.34;99200.09;5106257;28;20038;-70
2022/04/19 09:48:19;;;;;;;4.68;3.45;;;;;;;10.46;49.98;99191.91;5101670;28;20072;-71
2022/04/19 09:50:51;;;;;;;5.45;4.53;;;;;;;10.76;51.35;99191.00;5106336;28;20035;-71
2022/04/19 09:53:20;;;;;;;16.30;9.18;;;;;;;10.28;50.76;99182.81;5105021;28;20023;-69
2022/04/19 09:55:51;;;;;;;58.25;45.53;;;;;;;9.68;52.10;99191.22;5112351;28;20378;-69
2022/04/19 09:58:17;;;;;;;14.25;10.07;;;;;;;9.75;54.49;99197.09;5092623;28;20058;-72
2022/04/19 10:00:44;;;;;;;15.45;9.52;;;;;;;9.21;53.23;99192.88;5092726;28;20401;-74
2022/04/19 10:08:10;;;;;;;4.95;4.32;;;;;;;9.24;54.90;99197.81;5103947;28;20127;-71
2022/04/19 10:08:53;;;;;;;7.55;5.13;;;;;;;9.88;52.66;99184.03;5094401;28;20119;-71
2022/04/19 10:11:19;;;;;;;9.25;7.82;;;;;;;10.34;53.93;99175.03;5091672;28;20114;-71
2022/04/19 10:13:46;;;;;;;9.57;4.88;;;;;;;10.77;52.48;99171.09;5100219;28;20454;-72
2022/04/19 10:16:14;;;;;;;7.18;4.25;;;;;;;10.92;50.88;99171.59;5105488;28;20034;-71
2022/04/19 10:18:40;;;;;;;4.28;3.67;;;;;;;11.03;50.21;99164.41;5111922;28;20036;-71
2022/04/19 10:21:09;;;;;;;7.28;4.05;;;;;;;11.45;48.83;99166.22;5108720;28;20024;-70
2022/04/19 10:23:39;;;;;;;4.10;3.47;;;;;;;11.56;51.95;99166.59;5106997;28;20046;-71
2022/04/19 10:26:22;;;;;;;4.25;3.78;;;;;;;11.26;48.90;99161.19;5091703;28;20034;-71
2022/04/19 10:28:53;;;;;;;4.55;3.65;;;;;;;11.16;49.38;99162.47;5104830;28;20042;-71
2022/04/19 10:31:53;;;;;;;3.90;3.50;;;;;;;10.73;48.60;99158.13;5111626;28;20112;-71
2022/04/19 10:34:24;;;;;;;3.70;3.40;;;;;;;10.60;50.60;99155.28;5091954;28;20035;-71
2022/04/19 10:36:54;;;;;;;4.45;3.53;;;;;;;10.58;50.20;99149.22;5092616;28;20104;-71
2022/04/19 10:39:22;;;;;;;2.95;2.75;;;;;;;11.21;48.42;99147.41;5111284;28;20038;-71
2022/04/19 10:41:52;;;;;;;3.75;2.80;;;;;;;11.37;48.54;99145.59;5093049;28;20456;-71
2022/04/19 10:44:29;;;;;;;3.97;3.25;;;;;;;11.62;50.10;99142.78;5110294;28;20051;-71
2022/04/19 10:47:16;;;;;;;3.63;3.33;;;;;;;11.53;50.83;99144.88;5111518;28;20032;-71
2022/04/19 10:50:03;;;;;;;5.57;3.63;;;;;;;10.91;47.13;99142.78;5092649;28;20035;-71
2022/04/19 10:52:38;;;;;;;4.10;3.15;;;;;;;11.04;46.21;99134.41;5104094;28;20031;-70
2022/04/19 10:55:08;;;;;;;3.75;3.15;;;;;;;11.06;48.59;99132.91;5087829;28;20451;-70
2022/04/19 11:00:34;;;;;;;3.67;3.15;;;;;;;12.22;48.30;99130.25;5101229;28;20050;-73
2022/04/19 11:03:09;;;;;;;3.40;3.10;;;;;;;12.34;48.84;99129.41;5104866;28;20490;-71
2022/04/19 11:05:43;;;;;;;2.80;2.60;;;;;;;11.98;46.25;99129.09;5107527;28;20020;-70
2022/04/19 11:08:27;;;;;;;5.22;3.90;;;;;;;12.63;46.18;99136.66;5107720;28;20466;-71
2022/04/19 11:10:55;;;;;;;6.30;3.60;;;;;;;12.87;47.78;99137.72;5103828;28;20028;-71
2022/04/19 11:13:44;;;;;;;3.40;3.10;;;;;;;12.32;46.79;99142.97;5108765;28;20028;-72
2022/04/19 11:16:13;;;;;;;8.32;3.65;;;;;;;12.53;43.75;99137.16;5086867;28;20080;-72
2022/04/19 11:18:41;;;;;;;4.63;4.10;;;;;;;12.52;42.94;99143.13;5107846;28;20489;-73
2022/04/19 11:21:08;;;;;;;4.90;3.85;;;;;;;13.00;44.09;99132.84;5110200;28;20023;-72
2022/04/19 11:23:48;;;;;;;4.10;3.35;;;;;;;13.27;43.93;99138.78;5107795;28;20092;-71
2022/04/19 11:26:34;;;;;;;5.47;3.13;;;;;;;13.46;41.30;99146.50;5105471;28;20015;-72
2022/04/19 11:29:09;;;;;;;5.72;3.58;;;;;;;12.28;42.04;99142.84;5106115;28;20102;-71
2022/04/19 11:31:36;;;;;;;4.32;3.33;;;;;;;11.51;43.75;99134.03;5102645;28;20081;-71
2022/04/19 11:34:13;;;;;;;4.05;3.63;;;;;;;11.39;42.50;99139.59;5108418;28;20467;-71
2022/04/19 11:36:38;;;;;;;4.97;3.22;;;;;;;11.25;44.43;99145.56;5109917;28;20020;-71
2022/04/19 11:39:04;;;;;;;6.78;3.15;;;;;;;11.60;44.17;99142.31;5079061;28;20525;-71
2022/04/19 11:46:51;;;;;;;10.40;2.80;;;;;;;8.38;63.55;99195.56;5109521;28;20103;-72
2022/04/19 11:49:20;;;;;;;7.63;2.60;;;;;;;7.54;73.33;99209.44;5113886;28;20047;-70
2022/04/19 11:51:50;;;;;;;5.47;3.03;;;;;;;7.18;76.37;99196.50;5094446;28;20102;-70
2022/04/19 11:54:19;;;;;;;;;;;;;;;6.66;78.61;99198.63;5092033;28;20027;-71
2022/04/19 11:56:45;;;;;;;7.88;3.70;;;;;;;6.46;79.61;99194.41;5109224;28;19918;-70
2022/04/19 11:59:11;;;;;;;6.97;3.58;;;;;;;6.74;80.45;99195.09;5107103;28;20122;-70
2022/04/19 12:01:36;;;;;;;4.68;3.38;;;;;;;7.27;81.95;99200.16;5093629;28;20512;-71
2022/04/19 12:04:11;;;;;;;5.50;4.00;;;;;;;8.18;81.87;99182.28;5091670;28;20111;-71
2022/04/19 12:06:37;;;;;;;3.58;3.28;;;;;;;8.59;78.93;99174.63;5110910;28;20577;-71
2022/04/19 12:09:03;;;;;;;3.10;2.60;;;;;;;8.61;77.83;99169.53;5113535;28;20020;-69
2022/04/19 12:11:30;;;;;;;3.25;2.88;;;;;;;8.99;80.04;99169.63;5100273;28;20020;-72